Terminal Aerodrome Forecast
Issued by NWS

Home | Current Version | Previous Version | Text Only | Print | Product List | Glossary On
Versions: 1 2 3 4 5 6 7 8 9 10 11 12 13 14 15
073
FTUS45 KTFX 130539
TAFHLN
TAF
KHLN 130539Z 1306/1406 VRB05KT P6SM SKC
     FM131000 VRB03KT P6SM BKN100
     FM131400 VRB03KT P6SM BKN050 BKN120
     FM131700 VRB03KT 5SM -SHSN OVC050
     FM140200 VRB04KT P6SM SCT030 BKN060=

USA.gov is the U.S. government's official web portal to all federal, state and local government web resources and services.